Time;durP1;ratioP1;P1;durP2;ratioP2;P2;SDS_P1;SDS_P2;PMS_P1;PMS_P2;Temp;Humidity;BMP_temperature;BMP_pressure;BME280_temperature;BME280_humidity;BME280_pressure;Samples;Min_cycle;Max_cycle;Signal;HPM_P1;HPM_P2
2021/07/16 00:00:43;;;;;;;12.27;7.47;;;;;;;;;;4981676;28;20222;-72
2021/07/16 00:03:08;;;;;;;19.43;8.27;;;;;;;;;;4987199;28;20445;-72
2021/07/16 00:05:34;;;;;;;18.80;8.70;;;;;;;;;;4981741;28;20425;-72
2021/07/16 00:07:59;;;;;;;15.43;7.75;;;;;;;;;;4980746;28;20452;-72
2021/07/16 00:10:24;;;;;;;14.37;7.13;;;;;;;;;;4976457;28;20215;-71
2021/07/16 00:12:50;;;;;;;17.65;8.30;;;;;;;;;;4977955;28;20841;-74
2021/07/16 00:15:16;;;;;;;14.90;7.70;;;;;;;;;;4986759;28;20211;-72
2021/07/16 00:17:42;;;;;;;17.63;7.20;;;;;;;;;;4986902;28;20265;-71
2021/07/16 00:20:07;;;;;;;12.57;6.95;;;;;;;;;;4982036;28;20191;-73
2021/07/16 00:22:33;;;;;;;12.13;7.40;;;;;;;;;;4980753;28;20245;-73
2021/07/16 00:24:58;;;;;;;12.40;6.70;;;;;;;;;;4985779;28;20187;-71
2021/07/16 00:27:23;;;;;;;15.45;7.25;;;;;;;;;;4989241;28;20218;-74
2021/07/16 00:29:48;;;;;;;13.68;6.18;;;;;;;;;;4988431;28;20229;-73
2021/07/16 00:32:14;;;;;;;11.57;7.03;;;;;;;;;;4975829;28;20232;-73
2021/07/16 00:34:39;;;;;;;11.82;7.15;;;;;;;;;;4979004;28;20176;-73
2021/07/16 00:37:04;;;;;;;14.45;7.25;;;;;;;;;;4983245;28;20208;-73
2021/07/16 00:39:29;;;;;;;11.85;6.93;;;;;;;;;;4980948;28;20706;-73
2021/07/16 00:41:54;;;;;;;10.20;6.60;;;;;;;;;;4982545;28;20674;-73
2021/07/16 00:44:20;;;;;;;12.25;6.53;;;;;;;;;;4981863;28;20441;-73
2021/07/16 00:46:45;;;;;;;11.55;7.68;;;;;;;;;;4986484;28;20187;-73
2021/07/16 00:49:11;;;;;;;14.07;7.00;;;;;;;;;;4977345;28;20654;-73
2021/07/16 00:51:36;;;;;;;11.80;6.00;;;;;;;;;;4980727;28;20597;-73
2021/07/16 00:54:01;;;;;;;15.63;7.47;;;;;;;;;;4977793;28;20430;-73
2021/07/16 00:56:26;;;;;;;17.05;7.95;;;;;;;;;;4975825;28;20184;-74
2021/07/16 00:58:52;;;;;;;16.92;7.20;;;;;;;;;;4985185;28;20210;-73
2021/07/16 01:01:17;;;;;;;13.68;7.93;;;;;;;;;;4979387;28;20271;-73
2021/07/16 01:03:42;;;;;;;12.33;6.80;;;;;;;;;;4987255;28;20431;-73
2021/07/16 01:06:08;;;;;;;11.35;7.43;;;;;;;;;;4964927;28;20425;-73
2021/07/16 01:08:33;;;;;;;16.85;7.55;;;;;;;;;;4972340;28;20235;-74
2021/07/16 01:10:59;;;;;;;13.50;7.22;;;;;;;;;;4973029;28;20222;-73
2021/07/16 01:13:24;;;;;;;17.70;7.75;;;;;;;;;;4993390;28;20215;-73
2021/07/16 01:15:49;;;;;;;17.15;7.30;;;;;;;;;;4973783;28;20856;-73
2021/07/16 01:18:15;;;;;;;14.88;6.85;;;;;;;;;;4979259;23;20677;-73
2021/07/16 01:20:40;;;;;;;15.90;7.28;;;;;;;;;;4957657;28;20201;-73
2021/07/16 01:23:24;;;;;;;21.15;8.52;;;;;;;;;;4956778;28;20199;-72
2021/07/16 01:25:50;;;;;;;12.15;7.03;;;;;;;;;;4956250;28;20218;-73
2021/07/16 01:28:16;;;;;;;15.18;6.65;;;;;;;;;;4956445;28;20285;-73
2021/07/16 01:30:42;;;;;;;10.70;6.60;;;;;;;;;;4954410;28;20196;-71
2021/07/16 01:33:07;;;;;;;17.92;6.30;;;;;;;;;;4957285;28;20238;-73
2021/07/16 01:35:33;;;;;;;16.20;8.10;;;;;;;;;;4956721;28;20190;-73
2021/07/16 01:37:58;;;;;;;18.60;7.65;;;;;;;;;;4961002;28;20201;-72
2021/07/16 01:40:26;;;;;;;18.23;8.15;;;;;;;;;;4957602;28;20576;-73
2021/07/16 01:42:56;;;;;;;13.48;7.22;;;;;;;;;;4957479;28;20188;-73
2021/07/16 01:45:23;;;;;;;22.17;7.68;;;;;;;;;;4956720;28;20195;-72
2021/07/16 01:47:56;;;;;;;14.50;7.32;;;;;;;;;;4956076;28;20224;-73
2021/07/16 01:50:21;;;;;;;18.98;6.70;;;;;;;;;;4964456;28;20215;-73
2021/07/16 01:52:47;;;;;;;15.15;7.72;;;;;;;;;;4957080;28;20188;-73
2021/07/16 01:55:13;;;;;;;15.15;7.38;;;;;;;;;;4958466;28;20192;-73
2021/07/16 01:57:38;;;;;;;14.85;7.13;;;;;;;;;;4957148;28;20254;-73
2021/07/16 02:00:06;;;;;;;13.57;6.53;;;;;;;;;;4956319;28;20532;-73
2021/07/16 02:02:31;;;;;;;15.15;7.60;;;;;;;;;;4970773;28;20172;-72
2021/07/16 02:04:56;;;;;;;13.63;7.60;;;;;;;;;;4959916;28;20208;-73
2021/07/16 02:07:21;;;;;;;14.63;7.20;;;;;;;;;;4951101;28;20306;-72
2021/07/16 02:09:46;;;;;;;14.80;8.03;;;;;;;;;;4955690;28;20458;-73
2021/07/16 02:12:12;;;;;;;12.07;6.67;;;;;;;;;;4963086;28;20511;-74
2021/07/16 02:14:37;;;;;;;17.87;7.00;;;;;;;;;;4956777;28;20446;-73
2021/07/16 02:17:02;;;;;;;17.30;7.00;;;;;;;;;;4957427;28;20436;-73
2021/07/16 02:19:27;;;;;;;12.18;6.95;;;;;;;;;;4956584;28;20445;-73
2021/07/16 02:21:52;;;;;;;13.77;7.63;;;;;;;;;;4960483;28;20191;-73
2021/07/16 02:24:18;;;;;;;20.35;8.00;;;;;;;;;;4955028;28;20183;-72
2021/07/16 02:26:43;;;;;;;11.70;7.18;;;;;;;;;;4966609;28;20678;-72
2021/07/16 02:29:08;;;;;;;16.65;7.72;;;;;;;;;;4954148;28;20774;-72
2021/07/16 02:31:33;;;;;;;20.15;7.28;;;;;;;;;;4972721;28;20192;-73
2021/07/16 02:33:58;;;;;;;16.00;6.72;;;;;;;;;;4954391;28;20183;-73
2021/07/16 02:36:24;;;;;;;16.58;7.20;;;;;;;;;;4959093;28;20208;-73
2021/07/16 02:38:50;;;;;;;14.10;6.28;;;;;;;;;;4958972;28;20200;-73
2021/07/16 02:41:15;;;;;;;19.58;7.05;;;;;;;;;;4960398;28;20222;-73
2021/07/16 02:43:40;;;;;;;17.17;6.53;;;;;;;;;;4960627;28;20184;-73
2021/07/16 02:46:06;;;;;;;15.25;6.60;;;;;;;;;;4969657;28;20589;-72
2021/07/16 02:48:31;;;;;;;14.48;6.05;;;;;;;;;;4955210;28;20242;-72
2021/07/16 02:50:56;;;;;;;15.95;7.15;;;;;;;;;;4954867;28;20335;-73
2021/07/16 02:53:21;;;;;;;19.35;5.97;;;;;;;;;;4953226;28;20184;-72
2021/07/16 02:55:47;;;;;;;14.52;6.40;;;;;;;;;;4954198;28;20306;-73
2021/07/16 02:58:12;;;;;;;11.40;5.40;;;;;;;;;;4958812;28;20206;-73
2021/07/16 03:00:38;;;;;;;22.60;6.63;;;;;;;;;;4953309;28;20208;-72
2021/07/16 03:03:03;;;;;;;20.95;7.30;;;;;;;;;;4959383;28;20602;-72
2021/07/16 03:05:30;;;;;;;16.38;5.93;;;;;;;;;;4958579;28;20180;-72
2021/07/16 03:07:56;;;;;;;16.95;6.13;;;;;;;;;;4954401;28;20207;-72
2021/07/16 03:10:22;;;;;;;10.27;5.25;;;;;;;;;;4954545;28;20672;-73
2021/07/16 03:12:48;;;;;;;23.65;6.28;;;;;;;;;;4956922;28;20188;-72
2021/07/16 03:15:14;;;;;;;16.35;6.18;;;;;;;;;;4955533;28;20181;-72
2021/07/16 03:17:40;;;;;;;17.33;6.22;;;;;;;;;;4963374;28;20208;-72
2021/07/16 03:20:10;;;;;;;15.40;5.70;;;;;;;;;;4954871;28;20248;-73
2021/07/16 03:22:35;;;;;;;13.90;5.28;;;;;;;;;;4959951;28;20227;-71
2021/07/16 03:25:01;;;;;;;15.43;5.65;;;;;;;;;;4954014;28;20279;-73
2021/07/16 03:27:26;;;;;;;13.80;5.63;;;;;;;;;;4957769;28;20239;-72
2021/07/16 03:29:51;;;;;;;13.10;5.10;;;;;;;;;;4954815;28;20608;-72
2021/07/16 03:32:16;;;;;;;20.48;6.20;;;;;;;;;;4954624;28;20650;-73
2021/07/16 03:34:41;;;;;;;13.77;5.63;;;;;;;;;;4954460;28;20204;-72
2021/07/16 03:37:07;;;;;;;9.88;4.80;;;;;;;;;;4957384;28;20641;-73
2021/07/16 03:39:32;;;;;;;14.13;5.65;;;;;;;;;;4958487;28;20219;-73
2021/07/16 03:41:57;;;;;;;14.30;5.95;;;;;;;;;;4956578;28;20184;-71
2021/07/16 03:44:22;;;;;;;20.53;5.57;;;;;;;;;;4955008;28;20180;-71
2021/07/16 03:46:47;;;;;;;12.65;5.40;;;;;;;;;;4953713;28;20442;-72
2021/07/16 03:49:13;;;;;;;15.37;5.83;;;;;;;;;;4953330;28;20271;-72
2021/07/16 03:51:38;;;;;;;16.90;5.50;;;;;;;;;;4953690;28;22303;-72
2021/07/16 03:54:05;;;;;;;13.23;4.77;;;;;;;;;;4953641;28;20491;-71
2021/07/16 03:56:30;;;;;;;10.43;4.90;;;;;;;;;;4955325;28;20433;-72
2021/07/16 03:58:55;;;;;;;14.02;6.15;;;;;;;;;;4952629;28;20196;-73
2021/07/16 04:01:20;;;;;;;13.27;5.30;;;;;;;;;;4954676;28;20192;-73
2021/07/16 04:03:45;;;;;;;13.77;5.70;;;;;;;;;;4956812;28;20452;-72
2021/07/16 04:06:10;;;;;;;18.48;7.75;;;;;;;;;;4955242;28;20184;-72
2021/07/16 04:08:37;;;;;;;15.25;4.82;;;;;;;;;;4956931;28;21567;-73
2021/07/16 04:11:03;;;;;;;19.95;5.55;;;;;;;;;;4955572;28;20575;-72
2021/07/16 04:13:28;;;;;;;12.35;5.63;;;;;;;;;;4957384;28;20224;-72
2021/07/16 04:15:53;;;;;;;12.25;5.63;;;;;;;;;;4953159;28;20176;-72
2021/07/16 04:18:19;;;;;;;10.90;4.90;;;;;;;;;;4955156;28;20219;-73
2021/07/16 04:20:44;;;;;;;13.02;5.30;;;;;;;;;;4953632;28;20190;-72
2021/07/16 04:23:09;;;;;;;12.17;4.17;;;;;;;;;;4954057;28;20188;-72
2021/07/16 04:25:34;;;;;;;11.85;4.65;;;;;;;;;;4954515;28;20456;-72
2021/07/16 04:28:05;;;;;;;9.60;4.45;;;;;;;;;;4957001;28;20218;-72
2021/07/16 04:30:31;;;;;;;15.07;4.95;;;;;;;;;;4953735;28;20556;-72
2021/07/16 04:33:01;;;;;;;12.85;4.90;;;;;;;;;;4953743;28;20184;-72
2021/07/16 04:35:27;;;;;;;18.73;6.13;;;;;;;;;;4953795;28;22216;-72
2021/07/16 04:37:52;;;;;;;15.98;5.15;;;;;;;;;;4955061;28;20227;-73
2021/07/16 04:40:20;;;;;;;14.60;4.70;;;;;;;;;;4959211;28;20266;-72
2021/07/16 04:42:45;;;;;;;20.30;6.10;;;;;;;;;;4963453;28;20192;-72
2021/07/16 04:45:12;;;;;;;14.15;4.88;;;;;;;;;;4957419;28;20671;-72
2021/07/16 04:47:37;;;;;;;15.25;4.90;;;;;;;;;;4958383;28;20211;-72
2021/07/16 04:50:03;;;;;;;15.13;4.53;;;;;;;;;;4960576;28;20207;-71
2021/07/16 04:52:28;;;;;;;13.25;4.88;;;;;;;;;;4959461;28;20287;-72
2021/07/16 04:54:53;;;;;;;13.60;4.22;;;;;;;;;;4957154;28;20191;-72
2021/07/16 04:57:18;;;;;;;16.83;4.47;;;;;;;;;;4959820;28;20673;-73
2021/07/16 04:59:44;;;;;;;15.98;4.95;;;;;;;;;;4956489;28;20440;-73
2021/07/16 05:02:09;;;;;;;13.52;4.72;;;;;;;;;;4957306;28;20203;-73
2021/07/16 05:04:34;;;;;;;17.23;5.60;;;;;;;;;;4959447;28;20697;-72
2021/07/16 05:06:59;;;;;;;9.88;4.20;;;;;;;;;;4959061;28;20189;-72
2021/07/16 05:09:25;;;;;;;14.55;4.80;;;;;;;;;;4957582;28;20196;-72
2021/07/16 05:11:53;;;;;;;20.42;4.43;;;;;;;;;;4959595;28;20188;-73
2021/07/16 05:14:18;;;;;;;12.70;4.75;;;;;;;;;;4960862;28;20181;-72
2021/07/16 05:16:43;;;;;;;12.48;4.20;;;;;;;;;;4958215;28;20189;-72
2021/07/16 05:19:09;;;;;;;15.35;5.22;;;;;;;;;;4956326;28;20214;-72
2021/07/16 05:21:34;;;;;;;18.67;5.82;;;;;;;;;;4957995;28;20184;-73
2021/07/16 05:24:00;;;;;;;16.90;5.65;;;;;;;;;;4955657;28;20177;-73
2021/07/16 05:26:25;;;;;;;16.30;4.53;;;;;;;;;;4956708;28;20784;-71
2021/07/16 05:28:50;;;;;;;14.80;4.88;;;;;;;;;;4975328;28;20798;-72
2021/07/16 05:31:17;;;;;;;14.95;4.95;;;;;;;;;;4960014;28;20212;-72
2021/07/16 05:33:42;;;;;;;15.95;4.82;;;;;;;;;;4957588;28;21001;-72
2021/07/16 05:36:08;;;;;;;16.33;4.88;;;;;;;;;;4959023;28;20278;-73
2021/07/16 05:38:34;;;;;;;13.75;4.63;;;;;;;;;;4955808;28;20232;-72
2021/07/16 05:40:59;;;;;;;13.45;5.95;;;;;;;;;;4957798;28;20184;-73
2021/07/16 05:43:24;;;;;;;9.80;3.33;;;;;;;;;;4967289;28;20669;-72
2021/07/16 05:45:50;;;;;;;19.95;5.57;;;;;;;;;;4957646;28;20264;-73
2021/07/16 05:48:15;;;;;;;14.25;4.55;;;;;;;;;;4959576;28;20682;-72
2021/07/16 05:50:41;;;;;;;13.02;4.20;;;;;;;;;;4975136;28;20227;-71
2021/07/16 05:53:07;;;;;;;11.90;4.40;;;;;;;;;;4958199;28;20271;-73
2021/07/16 05:55:32;;;;;;;13.07;4.78;;;;;;;;;;4954952;28;20577;-72
2021/07/16 05:57:58;;;;;;;17.83;5.13;;;;;;;;;;4958158;28;20208;-71
2021/07/16 06:00:23;;;;;;;13.00;4.13;;;;;;;;;;4957110;28;20282;-72
2021/07/16 06:02:48;;;;;;;15.30;4.65;;;;;;;;;;4955549;28;20184;-71
2021/07/16 06:05:13;;;;;;;17.98;4.78;;;;;;;;;;4956612;28;20271;-72
2021/07/16 06:07:39;;;;;;;15.85;4.28;;;;;;;;;;4956113;28;20204;-72
2021/07/16 06:10:05;;;;;;;13.25;4.40;;;;;;;;;;4955607;28;20211;-72
2021/07/16 06:12:30;;;;;;;12.23;4.10;;;;;;;;;;4957803;28;20192;-72
2021/07/16 06:14:56;;;;;;;15.55;4.60;;;;;;;;;;4958368;28;20180;-71
2021/07/16 06:17:22;;;;;;;16.42;4.30;;;;;;;;;;4956792;28;20303;-71
2021/07/16 06:19:47;;;;;;;14.82;4.75;;;;;;;;;;4955741;28;20189;-74
2021/07/16 06:22:12;;;;;;;11.10;4.25;;;;;;;;;;4961943;28;20196;-74
2021/07/16 06:24:37;;;;;;;13.93;5.25;;;;;;;;;;4957356;28;20559;-74
2021/07/16 06:27:03;;;;;;;14.13;4.35;;;;;;;;;;4960454;28;20211;-74
2021/07/16 06:29:28;;;;;;;14.95;5.00;;;;;;;;;;4957959;28;20210;-72
2021/07/16 06:31:54;;;;;;;14.25;4.00;;;;;;;;;;4961484;28;20188;-74
2021/07/16 06:34:19;;;;;;;23.85;6.32;;;;;;;;;;4956753;28;20231;-74
2021/07/16 06:36:44;;;;;;;16.13;4.80;;;;;;;;;;4959713;28;20480;-74
2021/07/16 06:39:10;;;;;;;15.27;4.70;;;;;;;;;;4959667;28;20203;-73
2021/07/16 06:41:35;;;;;;;17.98;4.57;;;;;;;;;;4957468;28;20490;-74
2021/07/16 06:44:00;;;;;;;15.30;4.18;;;;;;;;;;4956364;28;20189;-74
2021/07/16 06:46:25;;;;;;;19.93;5.00;;;;;;;;;;4958187;28;20189;-74
2021/07/16 06:48:50;;;;;;;14.50;4.38;;;;;;;;;;4956331;28;20454;-73
2021/07/16 06:51:17;;;;;;;17.43;4.73;;;;;;;;;;4955414;28;20226;-72
2021/07/16 06:53:42;;;;;;;12.80;4.80;;;;;;;;;;4954999;28;20421;-71
2021/07/16 06:56:07;;;;;;;16.23;4.07;;;;;;;;;;4954117;28;20185;-72
2021/07/16 06:58:33;;;;;;;19.23;4.87;;;;;;;;;;4952972;28;20450;-72
2021/07/16 07:00:58;;;;;;;11.82;5.03;;;;;;;;;;4954921;28;20444;-72
2021/07/16 07:03:27;;;;;;;14.73;3.77;;;;;;;;;;4956087;28;20338;-71
2021/07/16 07:05:53;;;;;;;17.38;4.68;;;;;;;;;;4955991;28;20492;-71
2021/07/16 07:08:18;;;;;;;20.70;6.15;;;;;;;;;;4957728;28;20208;-71
2021/07/16 07:10:43;;;;;;;14.65;4.68;;;;;;;;;;4955704;28;20669;-72
2021/07/16 07:13:09;;;;;;;17.48;5.05;;;;;;;;;;4960033;28;20231;-72
2021/07/16 07:15:36;;;;;;;15.15;4.65;;;;;;;;;;4957102;28;20558;-72
2021/07/16 07:18:01;;;;;;;13.93;4.55;;;;;;;;;;4970818;23;20280;-70
2021/07/16 07:20:26;;;;;;;10.98;3.95;;;;;;;;;;4951362;28;20940;-71
2021/07/16 07:22:52;;;;;;;20.15;4.72;;;;;;;;;;4953509;28;20185;-71
2021/07/16 07:25:18;;;;;;;16.02;4.30;;;;;;;;;;4953305;28;20210;-70
2021/07/16 07:27:43;;;;;;;16.57;5.03;;;;;;;;;;4949293;28;20263;-70
2021/07/16 07:30:08;;;;;;;13.83;4.57;;;;;;;;;;4949329;28;20635;-70
2021/07/16 07:32:34;;;;;;;18.00;5.13;;;;;;;;;;4936250;28;20435;-70
2021/07/16 07:34:59;;;;;;;14.63;3.70;;;;;;;;;;4937014;28;20239;-70
2021/07/16 07:37:24;;;;;;;13.13;3.95;;;;;;;;;;4939792;28;20240;-70
2021/07/16 07:39:50;;;;;;;18.05;4.22;;;;;;;;;;4932668;28;20186;-70
2021/07/16 07:42:17;;;;;;;17.15;4.20;;;;;;;;;;4938523;28;20642;-70
2021/07/16 07:44:42;;;;;;;15.23;4.70;;;;;;;;;;4936804;28;20193;-71
2021/07/16 07:47:08;;;;;;;17.08;4.60;;;;;;;;;;4941368;28;20204;-71
2021/07/16 07:49:33;;;;;;;20.95;5.57;;;;;;;;;;4948133;28;20211;-70
2021/07/16 07:51:58;;;;;;;11.10;4.15;;;;;;;;;;4941010;28;20268;-70
2021/07/16 07:54:24;;;;;;;15.40;4.68;;;;;;;;;;4940357;28;20652;-70
2021/07/16 07:56:49;;;;;;;15.20;4.43;;;;;;;;;;4934284;28;20193;-71
2021/07/16 07:59:14;;;;;;;15.32;5.00;;;;;;;;;;4933247;28;20455;-71
2021/07/16 08:01:39;;;;;;;20.00;4.80;;;;;;;;;;4932444;28;20186;-71
2021/07/16 08:04:04;;;;;;;10.25;4.38;;;;;;;;;;4934810;28;20435;-72
2021/07/16 08:06:30;;;;;;;22.35;4.55;;;;;;;;;;4944653;28;20228;-71
2021/07/16 08:08:55;;;;;;;18.05;5.72;;;;;;;;;;4933783;28;20351;-70
2021/07/16 08:11:21;;;;;;;18.85;5.97;;;;;;;;;;4937158;28;20536;-71
2021/07/16 08:13:46;;;;;;;18.45;4.95;;;;;;;;;;4933638;28;20213;-70
2021/07/16 08:16:11;;;;;;;14.67;4.97;;;;;;;;;;4934446;28;20640;-70
2021/07/16 08:18:36;;;;;;;15.53;4.90;;;;;;;;;;4932722;28;20470;-70
2021/07/16 08:21:01;;;;;;;14.18;4.20;;;;;;;;;;4937948;28;20485;-71
2021/07/16 08:23:27;;;;;;;14.38;4.68;;;;;;;;;;4934041;28;20215;-71
2021/07/16 08:25:52;;;;;;;15.40;5.38;;;;;;;;;;4933994;28;20267;-70
2021/07/16 08:28:17;;;;;;;19.10;4.82;;;;;;;;;;4935179;28;20213;-71
2021/07/16 08:30:42;;;;;;;14.23;5.13;;;;;;;;;;4933827;28;20223;-70
2021/07/16 08:33:08;;;;;;;13.47;4.97;;;;;;;;;;4919711;28;20320;-71
2021/07/16 08:35:33;;;;;;;14.15;4.55;;;;;;;;;;4936325;28;20438;-71
2021/07/16 08:37:59;;;;;;;16.98;4.85;;;;;;;;;;4936370;28;20204;-71
2021/07/16 08:40:25;;;;;;;13.10;4.45;;;;;;;;;;4938843;28;20191;-71
2021/07/16 08:42:50;;;;;;;14.38;4.25;;;;;;;;;;4937828;28;20188;-69
2021/07/16 08:45:16;;;;;;;10.55;3.63;;;;;;;;;;4934227;28;20191;-69
2021/07/16 08:47:42;;;;;;;15.18;3.92;;;;;;;;;;4939481;28;20201;-69
2021/07/16 08:50:09;;;;;;;15.35;4.22;;;;;;;;;;4934349;28;20641;-70
2021/07/16 08:52:34;;;;;;;17.42;5.07;;;;;;;;;;4931964;28;20264;-69
2021/07/16 08:55:01;;;;;;;16.35;4.10;;;;;;;;;;4935076;28;20639;-69
2021/07/16 08:57:28;;;;;;;16.45;4.80;;;;;;;;;;4934218;28;20245;-70
2021/07/16 08:59:53;;;;;;;12.10;3.90;;;;;;;;;;4931575;28;20267;-69
2021/07/16 09:02:19;;;;;;;17.80;5.10;;;;;;;;;;4936315;28;20468;-70
2021/07/16 09:04:44;;;;;;;16.83;4.68;;;;;;;;;;4936021;28;20172;-71
2021/07/16 09:07:09;;;;;;;18.80;4.78;;;;;;;;;;4935243;28;21684;-71
2021/07/16 09:09:36;;;;;;;13.13;3.95;;;;;;;;;;4935450;28;20237;-71
2021/07/16 09:12:01;;;;;;;16.67;4.82;;;;;;;;;;4931813;28;20193;-70
2021/07/16 09:14:28;;;;;;;13.50;3.63;;;;;;;;;;4936012;28;20511;-69
2021/07/16 09:17:00;;;;;;;15.75;4.38;;;;;;;;;;4938700;28;21436;-69
2021/07/16 09:19:27;;;;;;;14.35;4.35;;;;;;;;;;4939078;28;20253;-70
2021/07/16 09:22:09;;;;;;;11.90;3.97;;;;;;;;;;4937807;28;20236;-70
2021/07/16 09:24:34;;;;;;;17.13;4.65;;;;;;;;;;4937034;28;20193;-69
2021/07/16 09:26:59;;;;;;;15.13;3.95;;;;;;;;;;4936030;28;20448;-70
2021/07/16 09:29:31;;;;;;;13.60;3.88;;;;;;;;;;4937284;28;20667;-69
2021/07/16 09:32:03;;;;;;;19.42;4.30;;;;;;;;;;4943452;28;20861;-69
2021/07/16 09:34:29;;;;;;;16.25;4.55;;;;;;;;;;4943199;28;20181;-68
2021/07/16 09:36:54;;;;;;;11.80;4.00;;;;;;;;;;4940083;28;20239;-70
2021/07/16 09:39:20;;;;;;;15.07;4.05;;;;;;;;;;4941595;28;20201;-68
2021/07/16 09:41:51;;;;;;;13.23;4.25;;;;;;;;;;4949551;28;20322;-69
2021/07/16 09:44:26;;;;;;;16.15;4.80;;;;;;;;;;4940419;28;20912;-68
2021/07/16 09:47:07;;;;;;;12.25;4.53;;;;;;;;;;4938029;28;20576;-69
2021/07/16 09:49:33;;;;;;;21.10;4.72;;;;;;;;;;4935041;28;20659;-69
2021/07/16 09:52:05;;;;;;;13.38;4.00;;;;;;;;;;4937673;28;20176;-69
2021/07/16 09:54:30;;;;;;;11.30;4.78;;;;;;;;;;4940543;28;20182;-70
2021/07/16 09:56:55;;;;;;;13.87;6.00;;;;;;;;;;4935134;28;20936;-69
2021/07/16 09:59:26;;;;;;;15.87;4.10;;;;;;;;;;4937604;28;20542;-69
2021/07/16 10:01:52;;;;;;;16.83;4.30;;;;;;;;;;4936656;28;20793;-70
2021/07/16 10:04:21;;;;;;;14.95;4.85;;;;;;;;;;4935953;28;20196;-69
2021/07/16 10:06:47;;;;;;;13.98;4.63;;;;;;;;;;4939456;28;20197;-70
2021/07/16 10:09:13;;;;;;;13.65;4.40;;;;;;;;;;4937059;28;20204;-70
2021/07/16 10:11:38;;;;;;;13.35;4.43;;;;;;;;;;4942458;28;20247;-70
2021/07/16 10:14:04;;;;;;;18.10;4.13;;;;;;;;;;4935639;28;20200;-69
2021/07/16 10:16:30;;;;;;;9.63;3.72;;;;;;;;;;4947375;28;20180;-70
2021/07/16 10:18:56;;;;;;;12.73;3.70;;;;;;;;;;4934491;28;20759;-69
2021/07/16 10:21:22;;;;;;;14.45;4.30;;;;;;;;;;4939169;28;20181;-70
2021/07/16 10:23:50;;;;;;;13.68;4.38;;;;;;;;;;4939564;28;20193;-69
2021/07/16 10:26:19;;;;;;;12.98;4.65;;;;;;;;;;4937602;28;20176;-69
2021/07/16 10:28:44;;;;;;;13.98;3.78;;;;;;;;;;4938848;28;20201;-69
2021/07/16 10:31:28;;;;;;;16.92;4.53;;;;;;;;;;4938021;28;20287;-69
2021/07/16 10:33:53;;;;;;;15.02;4.40;;;;;;;;;;4935835;28;20639;-69
2021/07/16 10:36:38;;;;;;;11.45;3.50;;;;;;;;;;4937484;28;20189;-70
2021/07/16 10:39:13;;;;;;;11.77;3.60;;;;;;;;;;4931842;28;20198;-70
2021/07/16 10:41:40;;;;;;;13.25;4.00;;;;;;;;;;4938197;28;20242;-69
2021/07/16 10:44:06;;;;;;;13.15;4.38;;;;;;;;;;4935268;28;20173;-70
2021/07/16 10:46:32;;;;;;;14.80;5.78;;;;;;;;;;4940698;28;20593;-70
2021/07/16 10:48:57;;;;;;;13.23;3.97;;;;;;;;;;4933824;28;20209;-68
2021/07/16 10:51:24;;;;;;;9.80;3.53;;;;;;;;;;4935868;28;20287;-69
2021/07/16 10:53:49;;;;;;;11.20;3.85;;;;;;;;;;4938012;28;20647;-69
2021/07/16 10:56:18;;;;;;;12.47;3.60;;;;;;;;;;4936085;28;20232;-68
2021/07/16 10:58:44;;;;;;;12.48;4.47;;;;;;;;;;4955827;28;20331;-69
2021/07/16 11:01:10;;;;;;;10.07;3.58;;;;;;;;;;4934355;28;20255;-70
2021/07/16 11:03:39;;;;;;;12.45;4.45;;;;;;;;;;4943810;28;20832;-70
2021/07/16 11:06:04;;;;;;;11.57;3.85;;;;;;;;;;4937207;28;20186;-70
2021/07/16 11:08:35;;;;;;;10.75;3.65;;;;;;;;;;4942399;28;20212;-69
2021/07/16 11:11:07;;;;;;;12.30;3.72;;;;;;;;;;4938863;28;20660;-69
2021/07/16 11:13:37;;;;;;;10.52;3.97;;;;;;;;;;4937410;28;20176;-70
2021/07/16 11:16:31;;;;;;;14.77;4.78;;;;;;;;;;4937341;28;20562;-68
2021/07/16 11:18:59;;;;;;;11.82;3.80;;;;;;;;;;4935307;28;20211;-69
2021/07/16 11:21:39;;;;;;;12.73;3.75;;;;;;;;;;4936698;28;20235;-70
2021/07/16 11:24:04;;;;;;;10.70;4.50;;;;;;;;;;4935482;28;20675;-69
2021/07/16 11:26:31;;;;;;;9.45;3.85;;;;;;;;;;4935147;28;20304;-70
2021/07/16 11:28:56;;;;;;;14.00;3.90;;;;;;;;;;4937267;28;20317;-69
2021/07/16 11:31:21;;;;;;;11.25;3.42;;;;;;;;;;4937111;28;20219;-69
2021/07/16 11:33:56;;;;;;;8.63;3.60;;;;;;;;;;4934975;28;20192;-69
2021/07/16 11:36:22;;;;;;;9.88;3.88;;;;;;;;;;4938722;28;20287;-69
2021/07/16 11:38:54;;;;;;;12.23;3.90;;;;;;;;;;4936148;28;20558;-70
2021/07/16 11:41:28;;;;;;;12.90;4.28;;;;;;;;;;4937305;28;20189;-68
2021/07/16 11:43:53;;;;;;;11.73;4.05;;;;;;;;;;4936532;28;20189;-69
2021/07/16 11:46:28;;;;;;;13.07;3.80;;;;;;;;;;4938971;28;20671;-68
2021/07/16 11:48:53;;;;;;;13.52;3.92;;;;;;;;;;4936632;28;20208;-69
2021/07/16 11:51:25;;;;;;;14.60;4.10;;;;;;;;;;4938645;28;20217;-69
2021/07/16 11:53:51;;;;;;;17.83;4.88;;;;;;;;;;4935252;28;20191;-68
2021/07/16 11:56:16;;;;;;;15.17;4.97;;;;;;;;;;4937871;28;20185;-68
2021/07/16 11:58:48;;;;;;;11.98;4.15;;;;;;;;;;4935737;28;20446;-68
2021/07/16 12:01:13;;;;;;;11.25;3.92;;;;;;;;;;4934572;28;20189;-69
2021/07/16 12:03:38;;;;;;;12.02;4.05;;;;;;;;;;4935384;28;20256;-69
2021/07/16 12:06:06;;;;;;;12.27;4.67;;;;;;;;;;4934385;28;20217;-70
2021/07/16 12:08:31;;;;;;;13.40;4.50;;;;;;;;;;4936689;28;20201;-69
2021/07/16 12:11:02;;;;;;;12.50;4.60;;;;;;;;;;4937954;28;20213;-69
2021/07/16 12:13:27;;;;;;;10.32;3.97;;;;;;;;;;4933529;28;20907;-69
2021/07/16 12:16:01;;;;;;;10.83;4.27;;;;;;;;;;4935370;28;20197;-69
2021/07/16 12:18:26;;;;;;;14.20;4.75;;;;;;;;;;4936269;28;20209;-69
2021/07/16 12:20:54;;;;;;;10.38;3.55;;;;;;;;;;4935241;28;20256;-69
2021/07/16 12:23:20;;;;;;;15.98;4.82;;;;;;;;;;4930939;28;20226;-68
2021/07/16 12:25:45;;;;;;;12.33;4.17;;;;;;;;;;4933726;28;20303;-68
2021/07/16 12:28:44;;;;;;;8.93;3.42;;;;;;;;;;4936586;28;20200;-69
2021/07/16 12:31:02;;;;;;;12.00;4.13;;;;;;;;;;4934850;28;20567;-70
2021/07/16 12:33:35;;;;;;;14.55;4.53;;;;;;;;;;4935728;28;20189;-69
2021/07/16 12:36:00;;;;;;;15.35;4.47;;;;;;;;;;4936136;28;20588;-69
2021/07/16 12:38:29;;;;;;;14.65;4.60;;;;;;;;;;4941653;28;20208;-69
2021/07/16 12:41:04;;;;;;;10.57;4.60;;;;;;;;;;4940894;28;20276;-69
2021/07/16 12:43:36;;;;;;;16.20;4.05;;;;;;;;;;4936206;28;20275;-69
2021/07/16 12:46:01;;;;;;;11.80;4.40;;;;;;;;;;4936500;28;20185;-68
2021/07/16 12:48:29;;;;;;;13.27;4.65;;;;;;;;;;4936435;28;20540;-68
2021/07/16 12:51:04;;;;;;;11.52;4.30;;;;;;;;;;4935712;28;20221;-68
2021/07/16 12:53:32;;;;;;;12.43;4.40;;;;;;;;;;4936253;28;20188;-69
2021/07/16 12:55:58;;;;;;;13.30;3.75;;;;;;;;;;4933865;28;20186;-69
2021/07/16 12:58:35;;;;;;;13.10;4.30;;;;;;;;;;4932394;28;20207;-69
2021/07/16 13:01:00;;;;;;;9.63;4.05;;;;;;;;;;4938079;28;20188;-69
2021/07/16 13:03:25;;;;;;;13.48;4.72;;;;;;;;;;4938664;28;20181;-69
2021/07/16 13:05:51;;;;;;;16.73;4.53;;;;;;;;;;4937637;28;20192;-68
2021/07/16 13:08:26;;;;;;;15.23;4.32;;;;;;;;;;4938990;28;22096;-68
2021/07/16 13:11:01;;;;;;;17.60;4.45;;;;;;;;;;4937513;28;20377;-69
2021/07/16 13:13:27;;;;;;;13.40;4.95;;;;;;;;;;4939792;28;20215;-68
2021/07/16 13:16:12;;;;;;;14.88;5.10;;;;;;;;;;4940248;28;20176;-69
2021/07/16 13:18:38;;;;;;;15.48;4.15;;;;;;;;;;4973506;23;20321;-71
2021/07/16 13:21:03;;;;;;;12.30;3.97;;;;;;;;;;4993387;28;20685;-71
2021/07/16 13:23:29;;;;;;;17.90;5.28;;;;;;;;;;4996551;28;20190;-71
2021/07/16 13:25:54;;;;;;;10.67;3.80;;;;;;;;;;4988745;28;20665;-71
2021/07/16 13:28:20;;;;;;;16.33;5.78;;;;;;;;;;4986196;28;20551;-71
2021/07/16 13:30:45;;;;;;;14.37;4.27;;;;;;;;;;4990375;28;20208;-71
2021/07/16 13:33:10;;;;;;;19.50;5.33;;;;;;;;;;4976718;28;20237;-71
2021/07/16 13:35:35;;;;;;;11.93;4.23;;;;;;;;;;4974455;28;20171;-72
2021/07/16 13:38:01;;;;;;;14.13;4.03;;;;;;;;;;4975466;28;20234;-71
2021/07/16 13:40:26;;;;;;;13.32;4.50;;;;;;;;;;4978603;28;20191;-72
2021/07/16 13:42:51;;;;;;;10.97;3.67;;;;;;;;;;4975812;28;20683;-70
2021/07/16 13:45:17;;;;;;;15.10;4.97;;;;;;;;;;4972859;28;20187;-71
2021/07/16 13:47:42;;;;;;;12.47;4.40;;;;;;;;;;4976399;28;20693;-71
2021/07/16 13:50:08;;;;;;;12.97;4.67;;;;;;;;;;4975962;28;21232;-71
2021/07/16 13:52:33;;;;;;;13.30;4.53;;;;;;;;;;4975590;28;20827;-71
2021/07/16 13:54:59;;;;;;;13.43;4.60;;;;;;;;;;4972810;28;20200;-70
2021/07/16 13:57:24;;;;;;;13.67;4.57;;;;;;;;;;4988589;28;20175;-71
2021/07/16 13:59:49;;;;;;;11.43;4.10;;;;;;;;;;4972504;28;20707;-71
2021/07/16 14:02:14;;;;;;;15.57;4.65;;;;;;;;;;4973899;28;20279;-71
2021/07/16 14:04:39;;;;;;;10.43;3.80;;;;;;;;;;4972460;28;20192;-71
2021/07/16 14:07:05;;;;;;;15.67;4.20;;;;;;;;;;4974981;28;20202;-71
2021/07/16 14:09:30;;;;;;;13.20;4.38;;;;;;;;;;4977164;28;20204;-71
2021/07/16 14:11:57;;;;;;;10.00;4.25;;;;;;;;;;4981198;28;20259;-71
2021/07/16 14:14:23;;;;;;;13.45;4.50;;;;;;;;;;4977060;28;20200;-70
2021/07/16 14:16:48;;;;;;;10.00;4.18;;;;;;;;;;4976747;28;20695;-72
2021/07/16 14:19:13;;;;;;;15.52;4.50;;;;;;;;;;4971463;28;20227;-73
2021/07/16 14:21:38;;;;;;;11.40;3.83;;;;;;;;;;4976487;28;20210;-73
2021/07/16 14:24:04;;;;;;;14.48;4.63;;;;;;;;;;4972296;28;20190;-70
2021/07/16 14:26:29;;;;;;;15.77;4.28;;;;;;;;;;4974800;28;20188;-72